createdAt,value
2016-06-06T08:40:15.246Z,24.01
2016-06-06T08:41:15.280Z,23.99
2016-06-06T08:42:15.345Z,24.01
2016-06-06T08:43:15.395Z,23.8
2016-06-06T08:44:15.288Z,23.8
2016-06-06T08:45:15.510Z,23.95
2016-06-06T08:46:15.558Z,24.14
2016-06-06T08:47:15.655Z,24.16
2016-06-06T08:48:15.643Z,24.16
2016-06-06T08:49:15.739Z,24.47
2016-06-06T08:50:15.757Z,24.35
2016-06-06T08:51:15.807Z,24.47
2016-06-06T08:52:15.857Z,24.55
2016-06-06T08:53:15.921Z,24.63
2016-06-06T08:54:15.971Z,24.73
2016-06-06T08:55:16.021Z,24.69
2016-06-06T08:56:16.085Z,24.54
2016-06-06T08:57:16.120Z,24.54
2016-06-06T08:58:16.200Z,24.47
2016-06-06T08:59:16.079Z,24.55
2016-06-06T09:00:16.300Z,24.54
2016-06-06T09:01:16.178Z,24.48
2016-06-06T09:02:16.384Z,24.26
2016-06-06T09:03:16.276Z,24.43
2016-06-06T09:04:16.357Z,24.38
2016-06-06T09:05:16.532Z,24.48
2016-06-06T09:06:16.581Z,24.55
2016-06-06T09:07:16.647Z,24.53
2016-06-06T09:08:16.696Z,24.6
2016-06-06T09:09:16.762Z,24.65
2016-06-06T09:10:16.795Z,24.69
2016-06-06T09:11:16.845Z,24.76
2016-06-06T09:12:16.911Z,24.86
2016-06-06T09:13:16.944Z,24.88
2016-06-06T09:14:17.009Z,24.84
2016-06-06T09:15:17.058Z,24.89
2016-06-06T09:16:17.108Z,24.85
2016-06-06T09:17:17.174Z,24.88
2016-06-06T09:18:17.239Z,24.85
2016-06-06T09:19:17.288Z,24.65
2016-06-06T09:20:17.307Z,24.63
2016-06-06T09:21:17.388Z,24.69
2016-06-06T09:22:17.437Z,25.03
2016-06-06T09:23:17.471Z,25.16
2016-06-06T09:24:17.521Z,25.22
2016-06-06T09:25:17.585Z,24.81
2016-06-06T09:26:17.651Z,24.68
2016-06-06T09:27:17.701Z,24.86
2016-06-06T09:28:17.735Z,24.89
2016-06-06T09:29:17.659Z,24.86
2016-06-06T09:30:17.849Z,25.01
2016-06-06T09:31:17.883Z,25.08
2016-06-06T09:32:17.964Z,24.84
2016-06-06T09:33:17.998Z,24.96
2016-06-06T09:34:18.048Z,25.14
2016-06-06T09:35:18.129Z,25.1
2016-06-06T09:36:17.850Z,25.14
2016-06-06T09:37:18.228Z,25.43
2016-06-06T09:38:18.261Z,25.4
2016-06-06T09:39:18.326Z,25.48
2016-06-06T09:40:18.361Z,25.58
2016-06-06T09:41:18.426Z,25.54
2016-06-06T09:42:18.475Z,25.55
2016-06-06T09:43:18.525Z,25.6
2016-06-06T09:44:18.496Z,25.75
2016-06-06T09:45:18.640Z,25.84
2016-06-06T09:46:18.674Z,25.84
2016-06-06T09:47:18.833Z,25.99
2016-06-06T09:48:18.788Z,25.93
2016-06-06T09:49:18.838Z,25.83
2016-06-06T09:50:18.918Z,25.99
2016-06-06T09:51:18.796Z,26
2016-06-06T09:52:18.986Z,25.88
2016-06-06T09:53:19.036Z,26.03
2016-06-06T09:54:19.102Z,26.19
2016-06-06T09:55:18.994Z,26.09
2016-06-06T09:56:19.216Z,25.96
2016-06-06T09:57:19.282Z,25.84
2016-06-06T09:58:19.299Z,26.02
2016-06-06T09:59:19.412Z,26.26
2016-06-06T10:00:19.415Z,26.4
2016-06-06T10:01:19.496Z,26.7
2016-06-06T10:02:19.529Z,26.85
2016-06-06T10:03:19.563Z,26.89
2016-06-06T10:04:19.628Z,26.8
2016-06-06T10:05:19.693Z,26.8
2016-06-06T10:06:19.743Z,26.84
2016-06-06T10:07:19.777Z,27.08
2016-06-06T10:08:19.873Z,26.97
2016-06-06T10:09:19.907Z,26.88
2016-06-06T10:10:19.956Z,26.89
2016-06-06T10:11:20.007Z,26.84
2016-06-06T10:12:20.056Z,27.02
2016-06-06T10:13:20.105Z,27.2
2016-06-06T10:14:20.203Z,27.26
2016-06-06T10:15:20.205Z,27.47
2016-06-06T10:16:20.270Z,27.36
2016-06-06T10:17:20.319Z,27.47
2016-06-06T10:18:20.385Z,27.4
2016-06-06T10:19:20.434Z,27.52
2016-06-06T10:20:20.484Z,27.63
2016-06-06T10:21:20.533Z,27.67
2016-06-06T10:22:20.599Z,27.82
2016-06-06T10:23:20.649Z,28.17
2016-06-06T10:24:20.697Z,28.47
2016-06-06T10:25:20.747Z,28.79
2016-06-06T10:26:20.797Z,28.93
2016-06-06T10:27:20.862Z,29.07
2016-06-06T10:28:20.911Z,29.12
2016-06-06T10:29:21.399Z,29.19
2016-06-06T10:30:21.026Z,29.14
2016-06-06T10:31:21.091Z,29.23
2016-06-06T10:32:21.109Z,29.19
2016-06-06T10:33:21.175Z,29.14
2016-06-06T10:34:21.240Z,29.08
2016-06-06T10:35:21.290Z,29.01
2016-06-06T10:36:21.339Z,29.14
2016-06-06T10:37:21.389Z,29.04
2016-06-06T10:38:21.453Z,29.08
2016-06-06T10:39:21.520Z,29.26
2016-06-06T10:40:21.569Z,29.45
2016-06-06T10:41:21.603Z,29.39
2016-06-06T10:42:21.667Z,29.59
2016-06-06T10:43:21.733Z,29.71
2016-06-06T10:44:23.251Z,29.78
2016-06-06T10:45:21.848Z,29.95
2016-06-06T10:46:21.725Z,30.08
2016-06-06T10:47:21.994Z,30.24
2016-06-06T10:48:21.856Z,30.32
2016-06-06T10:49:22.093Z,30.55
2016-06-06T10:50:22.111Z,30.63
2016-06-06T10:51:22.177Z,30.78
2016-06-06T10:52:22.055Z,30.9
2016-06-06T10:53:22.307Z,30.9
2016-06-06T10:54:22.325Z,31.1
2016-06-06T10:55:22.375Z,31.21
2016-06-06T10:56:22.471Z,31.21
2016-06-06T10:57:22.505Z,31.07
2016-06-06T10:58:22.538Z,31
2016-06-06T10:59:22.620Z,31.05
2016-06-06T11:00:22.669Z,31.05
2016-06-06T11:01:22.719Z,31.1
2016-06-06T11:02:22.784Z,31.06
2016-06-06T11:03:22.834Z,31.1
2016-06-06T11:04:22.899Z,31.18
2016-06-06T11:05:22.933Z,31.15
2016-06-06T11:06:22.999Z,31.34
2016-06-06T11:07:22.923Z,31.69
2016-06-06T11:08:23.128Z,31.58
2016-06-06T11:09:23.147Z,31.52
2016-06-06T11:10:23.243Z,31.65
2016-06-06T11:11:23.137Z,31.73
2016-06-06T11:12:23.326Z,31.51
2016-06-06T11:13:23.376Z,31.56
2016-06-06T11:14:23.786Z,31.8
2016-06-06T11:15:23.491Z,31.85
2016-06-06T11:16:23.556Z,31.92
2016-06-06T11:17:23.621Z,31.96
2016-06-06T11:18:23.672Z,31.89
2016-06-06T11:19:23.720Z,31.71
2016-06-06T11:20:23.786Z,31.62
2016-06-06T11:21:23.851Z,31.42
2016-06-06T11:22:23.885Z,31.27
2016-06-06T11:23:23.810Z,31.61
2016-06-06T11:24:24.016Z,31.73
2016-06-06T11:25:24.049Z,31.89
2016-06-06T11:26:24.114Z,31.92
2016-06-06T11:27:24.180Z,32.15
2016-06-06T11:28:24.244Z,32.37
2016-06-06T11:29:24.482Z,32.48
2016-06-06T11:30:24.344Z,32.34
2016-06-06T11:31:24.409Z,32.58
2016-06-06T11:32:24.459Z,32.83
2016-06-06T11:33:24.540Z,32.89
2016-06-06T11:34:24.589Z,32.92
2016-06-06T11:35:24.638Z,33.04
2016-06-06T11:36:24.673Z,32.93
2016-06-06T11:37:24.754Z,33.07
2016-06-06T11:38:24.803Z,32.95
2016-06-06T11:39:24.853Z,32.89
2016-06-06T11:40:24.917Z,32.78
2016-06-06T11:41:24.967Z,32.71
2016-06-06T11:42:25.032Z,32.68
2016-06-06T11:43:25.098Z,32.67
2016-06-06T11:44:25.459Z,32.65
2016-06-06T11:45:26.025Z,33.04
2016-06-06T11:46:25.262Z,33.08
2016-06-06T11:47:25.374Z,33.08
2016-06-06T11:48:25.361Z,33.17
2016-06-06T11:49:25.426Z,33.23
2016-06-06T11:50:25.476Z,33.49
2016-06-06T11:51:25.541Z,33.52
2016-06-06T11:52:25.606Z,33.67
2016-06-06T11:53:25.656Z,33.5
2016-06-06T11:54:25.721Z,33.2
2016-06-06T11:55:25.771Z,33.67
2016-06-06T11:56:25.836Z,33.92
2016-06-06T11:57:25.885Z,34.18
2016-06-06T11:58:25.950Z,34.13
2016-06-06T11:59:27.077Z,33.94
2016-06-06T12:00:25.785Z,34.05
2016-06-06T12:01:26.130Z,33.77
2016-06-06T12:02:26.179Z,33.55
2016-06-06T12:03:26.246Z,33.81
2016-06-06T12:04:26.311Z,33.99
2016-06-06T12:05:26.219Z,34.23
2016-06-06T12:06:26.425Z,34.47
2016-06-06T12:07:26.507Z,34.67
2016-06-06T12:08:26.556Z,34.71
2016-06-06T12:09:26.620Z,34.38
2016-06-06T12:10:26.687Z,34.47
2016-06-06T12:11:26.735Z,34.36
2016-06-06T12:12:26.785Z,34.47
2016-06-06T12:13:26.866Z,34.78
2016-06-06T12:14:26.775Z,34.81
2016-06-06T12:15:26.965Z,34.96
2016-06-06T12:16:27.031Z,34.96
2016-06-06T12:17:27.111Z,35.04
2016-06-06T12:18:27.145Z,35
2016-06-06T12:19:27.226Z,35.12
2016-06-06T12:20:27.275Z,35.39
2016-06-06T12:21:27.419Z,35.42
2016-06-06T12:22:27.406Z,35.53
2016-06-06T12:23:27.471Z,35.53
2016-06-06T12:24:27.536Z,35.41
2016-06-06T12:25:27.601Z,35.18
2016-06-06T12:26:27.635Z,34.89
2016-06-06T12:27:27.716Z,34.88
2016-06-06T12:28:27.780Z,35.11
2016-06-06T12:29:28.596Z,35.26
2016-06-06T12:30:27.849Z,35.42
2016-06-06T12:31:27.977Z,35.41
2016-06-06T12:32:28.027Z,35.39
2016-06-06T12:33:28.060Z,35.52
2016-06-06T12:34:28.140Z,35.73
2016-06-06T12:35:28.207Z,35.73
2016-06-06T12:36:28.271Z,36.07
2016-06-06T12:37:28.337Z,36.05
2016-06-06T12:38:28.261Z,35.63
2016-06-06T12:39:28.467Z,35.45
2016-06-06T12:40:28.501Z,35.52
2016-06-06T12:41:28.582Z,35.6
2016-06-06T12:42:28.647Z,35.83
2016-06-06T12:43:28.697Z,35.93
2016-06-06T12:44:28.793Z,35.73
2016-06-06T12:45:28.686Z,35.48
2016-06-06T12:46:28.892Z,35.44
2016-06-06T12:47:29.020Z,35.53
2016-06-06T12:48:29.007Z,35.71
2016-06-06T12:49:29.087Z,35.85
2016-06-06T12:50:29.153Z,35.68
2016-06-06T12:51:29.047Z,35.26
2016-06-06T12:52:29.252Z,35.23
2016-06-06T12:53:29.348Z,35.41
2016-06-06T12:54:29.414Z,35.44
2016-06-06T12:55:29.464Z,35.45
2016-06-06T12:56:29.513Z,35.19
2016-06-06T12:57:29.577Z,35.36
2016-06-06T12:58:29.643Z,35.3
2016-06-06T12:59:30.130Z,35.36
2016-06-06T13:00:29.774Z,35.76
2016-06-06T13:01:29.839Z,35.79
2016-06-06T13:02:29.747Z,35.76
2016-06-06T13:03:29.985Z,35.9
2016-06-06T13:04:30.018Z,36.05
2016-06-06T13:05:30.100Z,36.36
2016-06-06T13:06:30.165Z,36.73
2016-06-06T13:07:30.214Z,36.93
2016-06-06T13:08:30.296Z,36.93
2016-06-06T13:09:30.360Z,37.01
2016-06-06T13:10:30.426Z,37.2
2016-06-06T13:11:30.490Z,37.28
2016-06-06T13:12:30.540Z,36.81
2016-06-06T13:13:30.606Z,36.7
2016-06-06T13:14:30.749Z,36.61
2016-06-06T13:15:30.595Z,36.59
2016-06-06T13:16:30.801Z,36.91
2016-06-06T13:17:30.866Z,37.02
2016-06-06T13:18:30.947Z,37.13
2016-06-06T13:19:30.981Z,37.08
2016-06-06T13:20:31.062Z,37.35
2016-06-06T13:21:31.127Z,37.25
2016-06-06T13:22:31.208Z,37.28
2016-06-06T13:23:31.258Z,37.71
2016-06-06T13:24:31.322Z,37.64
2016-06-06T13:25:31.388Z,37.86
2016-06-06T13:26:31.453Z,38.06
2016-06-06T13:27:31.502Z,38.21
2016-06-06T13:28:31.583Z,38.09
2016-06-06T13:29:31.508Z,38.15
2016-06-06T13:30:31.822Z,37.65
2016-06-06T13:31:31.794Z,37.74
2016-06-06T13:32:31.860Z,37.8
2016-06-06T13:33:31.924Z,38.08
2016-06-06T13:34:31.990Z,38.27
2016-06-06T13:35:31.899Z,38.31
2016-06-06T13:36:32.121Z,38.55
2016-06-06T13:37:32.029Z,38.61
2016-06-06T13:38:32.251Z,39
2016-06-06T13:39:32.316Z,39.29
2016-06-06T13:40:32.381Z,38.95
2016-06-06T13:41:32.446Z,38.8
2016-06-06T13:42:32.511Z,38.77
2016-06-06T13:43:32.577Z,38.62
2016-06-06T13:44:32.908Z,38.67
2016-06-06T13:45:32.707Z,38.97
2016-06-06T13:46:32.772Z,39.03
2016-06-06T13:47:32.901Z,39.12
2016-06-06T13:48:32.918Z,39.33
2016-06-06T13:49:32.967Z,39.3
2016-06-06T13:50:33.033Z,39.19
2016-06-06T13:51:33.098Z,39.15
2016-06-06T13:52:33.164Z,39.24
2016-06-06T13:53:33.259Z,39.36
2016-06-06T13:54:33.325Z,39.36
2016-06-06T13:55:33.375Z,39.22
2016-06-06T13:56:33.439Z,39.44
2016-06-06T13:57:33.520Z,39.44
2016-06-06T13:58:33.569Z,39.4
2016-06-06T13:59:34.307Z,38.91
2016-06-06T14:00:33.560Z,38.65
2016-06-06T14:01:33.922Z,38.64
2016-06-06T14:02:33.847Z,38.76
2016-06-06T14:03:33.911Z,38.89
2016-06-06T14:04:33.977Z,39.04
2016-06-06T14:05:34.042Z,39.09
2016-06-06T14:06:34.108Z,39.04
2016-06-06T14:07:34.172Z,39.15
2016-06-06T14:08:34.254Z,38.95
2016-06-06T14:09:34.302Z,38.54
2016-06-06T14:10:34.368Z,38.89
2016-06-06T14:11:34.449Z,39.12
2016-06-06T14:12:34.515Z,38.87
2016-06-06T14:13:34.579Z,38.77
2016-06-06T14:14:35.348Z,39.17
2016-06-06T14:15:35.007Z,39.51
2016-06-06T14:16:34.776Z,39.85
2016-06-06T14:17:34.840Z,40.12
2016-06-06T14:18:34.905Z,40.23
2016-06-06T14:19:34.986Z,40.21
2016-06-06T14:20:35.082Z,40.04
2016-06-06T14:21:35.131Z,39.75
2016-06-06T14:22:35.197Z,39.92
2016-06-06T14:23:35.262Z,40.04
2016-06-06T14:24:35.312Z,39.77
2016-06-06T14:25:35.425Z,39.4
2016-06-06T14:26:35.458Z,39.37
2016-06-06T14:27:35.522Z,39.31
2016-06-06T14:28:35.589Z,39.29
2016-06-06T14:29:35.591Z,39.38
2016-06-06T14:30:37.233Z,39.22
2016-06-06T14:31:35.816Z,39.21
2016-06-06T14:32:35.864Z,39.19
2016-06-06T14:33:35.930Z,39.22
2016-06-06T14:34:36.010Z,39.17
2016-06-06T14:35:36.076Z,39.36
2016-06-06T14:36:36.125Z,39.25
2016-06-06T14:37:36.191Z,39.14
2016-06-06T14:38:36.255Z,39.07
2016-06-06T14:39:36.322Z,38.79
2016-06-06T14:40:36.402Z,38.76
2016-06-06T14:41:36.482Z,38.69
2016-06-06T14:42:36.532Z,38.77
2016-06-06T14:43:36.598Z,38.86
2016-06-06T14:44:37.632Z,39.06
2016-06-06T14:45:37.321Z,39.31
2016-06-06T14:46:36.809Z,38.95
2016-06-06T14:47:36.920Z,38.64
2016-06-06T14:48:36.924Z,38.65
2016-06-06T14:49:36.989Z,38.46
2016-06-06T14:50:37.069Z,38.34
2016-06-06T14:51:37.119Z,38.4
2016-06-06T14:52:37.043Z,38.86
2016-06-06T14:53:37.249Z,39.04
2016-06-06T14:54:37.314Z,39.03
2016-06-06T14:55:37.380Z,38.96
2016-06-06T14:56:37.445Z,38.92
2016-06-06T14:57:37.510Z,38.3
2016-06-06T14:58:37.592Z,38.02
2016-06-06T14:59:37.500Z,38.27
2016-06-06T15:00:38.065Z,38.42
2016-06-06T15:01:39.036Z,38.54
2016-06-06T15:02:37.836Z,38.55
2016-06-06T15:03:37.745Z,38.54
2016-06-06T15:04:37.982Z,38.57
2016-06-06T15:05:38.032Z,38.57
2016-06-06T15:06:38.113Z,38.67
2016-06-06T15:07:38.146Z,38.68
2016-06-06T15:08:38.212Z,38.23
2016-06-06T15:09:38.293Z,38.14
2016-06-06T15:10:38.341Z,38.11
2016-06-06T15:11:38.438Z,38.11
2016-06-06T15:12:38.488Z,38.05
2016-06-06T15:13:38.553Z,37.67
2016-06-06T15:14:39.852Z,37.78
2016-06-06T15:15:38.699Z,37.86
2016-06-06T15:16:38.732Z,37.68
2016-06-06T15:17:38.782Z,37.53
2016-06-06T15:18:38.863Z,37.77
2016-06-06T15:19:38.913Z,37.51
2016-06-06T15:20:38.979Z,37.11
2016-06-06T15:21:39.028Z,37.13
2016-06-06T15:22:39.109Z,37.08
2016-06-06T15:23:39.174Z,37.14
2016-06-06T15:24:39.240Z,37.13
2016-06-06T15:25:39.289Z,36.99
2016-06-06T15:26:39.353Z,36.51
2016-06-06T15:27:39.419Z,36.12
2016-06-06T15:28:39.484Z,35.9
2016-06-06T15:29:39.753Z,35.8
2016-06-06T15:30:39.615Z,35.8
2016-06-06T15:31:39.664Z,35.67
2016-06-06T15:32:39.730Z,35.24
2016-06-06T15:33:39.794Z,35.3
2016-06-06T15:34:39.861Z,35.31
2016-06-06T15:35:39.909Z,35.14
2016-06-06T15:36:39.959Z,35.12
2016-06-06T15:37:40.008Z,35.3
2016-06-06T15:38:40.089Z,35.39
2016-06-06T15:39:40.139Z,35.07
2016-06-06T15:40:40.204Z,34.93
2016-06-06T15:41:40.269Z,34.51
2016-06-06T15:42:40.318Z,34.45
2016-06-06T15:43:40.384Z,34.45
2016-06-06T15:44:40.605Z,34.54
2016-06-06T15:45:41.015Z,34.52
2016-06-06T15:46:40.564Z,34.43
2016-06-06T15:47:40.660Z,34.23
2016-06-06T15:48:40.694Z,34.06
2016-06-06T15:49:40.744Z,33.89
2016-06-06T15:50:40.794Z,33.87
2016-06-06T15:51:40.702Z,33.68
2016-06-06T15:52:40.924Z,33.81
2016-06-06T15:53:40.989Z,33.83
2016-06-06T15:54:41.007Z,33.92
2016-06-06T15:55:41.104Z,33.89
2016-06-06T15:56:41.153Z,33.76
2016-06-06T15:57:41.218Z,33.53
2016-06-06T15:58:41.268Z,33.42
2016-06-06T15:59:41.896Z,33.19
2016-06-06T16:00:41.586Z,33.09
2016-06-06T16:01:41.448Z,33.09
2016-06-06T16:02:41.498Z,33.04
2016-06-06T16:03:41.563Z,32.92
2016-06-06T16:04:41.612Z,33.01
2016-06-06T16:05:41.678Z,33.07
2016-06-06T16:06:41.742Z,33.14
2016-06-06T16:07:41.808Z,32.97
2016-06-06T16:08:41.842Z,32.89
2016-06-06T16:09:41.908Z,32.92
2016-06-06T16:10:41.972Z,32.8
2016-06-06T16:11:42.038Z,32.89
2016-06-06T16:12:42.088Z,32.7
2016-06-06T16:13:42.137Z,32.64
2016-06-06T16:14:42.499Z,32.95
2016-06-06T16:15:44.033Z,32.9
2016-06-06T16:16:42.316Z,33.04
2016-06-06T16:17:42.366Z,32.82
2016-06-06T16:18:42.275Z,32.92
2016-06-06T16:19:42.497Z,32.92
2016-06-06T16:20:42.530Z,32.9
2016-06-06T16:21:42.627Z,32.93
2016-06-06T16:22:42.661Z,32.95
2016-06-06T16:23:42.726Z,33.05
2016-06-06T16:24:42.807Z,33.19
2016-06-06T16:25:42.841Z,33.07
2016-06-06T16:26:42.921Z,32.97
2016-06-06T16:27:42.971Z,33.11
2016-06-06T16:28:43.021Z,33.3
2016-06-06T16:29:43.273Z,33.22
2016-06-06T16:30:43.214Z,33.46
2016-06-06T16:31:43.201Z,33.59
2016-06-06T16:32:43.250Z,33.76
2016-06-06T16:33:43.144Z,33.84
2016-06-06T16:34:43.397Z,33.83
2016-06-06T16:35:43.415Z,33.65
2016-06-06T16:36:43.480Z,33.71
2016-06-06T16:37:43.545Z,33.79
2016-06-06T16:38:43.611Z,33.95
2016-06-06T16:39:43.675Z,33.94
2016-06-06T16:40:43.741Z,33.95
2016-06-06T16:41:43.791Z,33.86
2016-06-06T16:42:43.844Z,33.86
2016-06-06T16:43:43.759Z,33.89
2016-06-06T16:44:44.297Z,34.08
2016-06-06T16:45:43.899Z,34.13
2016-06-06T16:46:44.110Z,34.14
2016-06-06T16:47:44.193Z,34.24
2016-06-06T16:48:44.228Z,34.29
2016-06-06T16:49:44.294Z,34.43
2016-06-06T16:50:44.346Z,34.43
2016-06-06T16:51:44.396Z,34.13
2016-06-06T16:52:44.463Z,34.08
2016-06-06T16:53:44.528Z,33.94
2016-06-06T16:54:44.579Z,33.95
2016-06-06T16:55:44.660Z,33.94
2016-06-06T16:56:44.696Z,33.77
2016-06-06T16:57:44.746Z,33.58
2016-06-06T16:58:44.810Z,33.49
2016-06-06T16:59:45.236Z,33.2
2016-06-06T17:00:44.676Z,33.2
2016-06-06T17:01:44.992Z,33.2
2016-06-06T17:02:45.057Z,33.2
2016-06-06T17:03:45.106Z,33.2
2016-06-06T17:04:45.187Z,33.11
2016-06-06T17:05:45.221Z,33.09
2016-06-06T17:06:45.287Z,33.19
2016-06-06T17:07:45.352Z,33.2
2016-06-06T17:08:45.402Z,33.08
2016-06-06T17:09:45.483Z,33.15
2016-06-06T17:10:45.532Z,33.12
2016-06-06T17:11:45.581Z,33.24
2016-06-06T17:12:45.631Z,33.17
2016-06-06T17:13:45.711Z,33.2
2016-06-06T17:14:45.871Z,33.22
2016-06-06T17:15:47.155Z,33.22
2016-06-06T17:16:45.876Z,33.17
2016-06-06T17:17:45.957Z,33.12
2016-06-06T17:18:45.991Z,33.08
2016-06-06T17:19:46.040Z,33.07
2016-06-06T17:20:46.105Z,33.19
2016-06-06T17:21:46.155Z,33.14
2016-06-06T17:22:46.221Z,33.19
2016-06-06T17:23:46.285Z,33.24
2016-06-06T17:24:46.335Z,33.08
2016-06-06T17:25:46.400Z,33.07
2016-06-06T17:26:46.450Z,33.12
2016-06-06T17:27:46.515Z,33.07
2016-06-06T17:28:46.564Z,33.05
2016-06-06T17:29:47.568Z,33.27
2016-06-06T17:30:47.211Z,33.24
2016-06-06T17:31:46.744Z,33.09
2016-06-06T17:32:46.810Z,33.39
2016-06-06T17:33:46.875Z,33.31
2016-06-06T17:34:46.924Z,33.08
2016-06-06T17:35:46.974Z,32.8
2016-06-06T17:36:47.039Z,32.6
2016-06-06T17:37:47.104Z,32.43
2016-06-06T17:38:47.139Z,32.49
2016-06-06T17:39:47.219Z,32.29
2016-06-06T17:40:47.268Z,32.23
2016-06-06T17:41:47.334Z,32.21
2016-06-06T17:42:47.368Z,32.22
2016-06-06T17:43:47.449Z,32.26
2016-06-06T17:44:47.498Z,32.43
2016-06-06T17:45:48.220Z,32.33
2016-06-06T17:46:47.613Z,32.03
2016-06-06T17:47:47.724Z,31.8
2016-06-06T17:48:47.728Z,31.77
2016-06-06T17:49:47.621Z,31.81
2016-06-06T17:50:47.842Z,31.73
2016-06-06T17:51:47.907Z,31.54
2016-06-06T17:52:47.957Z,31.44
2016-06-06T17:53:48.023Z,31.44
2016-06-06T17:54:48.056Z,31.51
2016-06-06T17:55:48.121Z,31.52
2016-06-06T17:56:48.187Z,31.46
2016-06-06T17:57:48.236Z,31.46
2016-06-06T17:58:48.286Z,31.34
2016-06-06T17:59:49.117Z,31.21
2016-06-06T18:00:48.479Z,31.12
2016-06-06T18:01:48.309Z,31.05
2016-06-06T18:02:48.531Z,30.87
2016-06-06T18:03:48.565Z,31
2016-06-06T18:04:48.630Z,31.09
2016-06-06T18:05:48.711Z,31.05
2016-06-06T18:06:48.729Z,30.88
2016-06-06T18:07:48.794Z,31
2016-06-06T18:08:48.859Z,30.94
2016-06-06T18:09:48.909Z,31
2016-06-06T18:10:48.958Z,30.91
2016-06-06T18:11:49.024Z,30.81
2016-06-06T18:12:49.089Z,30.77
2016-06-06T18:13:49.139Z,30.87
2016-06-06T18:14:49.375Z,31.02
2016-06-06T18:15:49.097Z,31
2016-06-06T18:16:49.288Z,30.92
2016-06-06T18:17:49.368Z,30.84
2016-06-06T18:18:49.386Z,30.81
2016-06-06T18:19:49.483Z,30.9
2016-06-06T18:20:49.517Z,30.75
2016-06-06T18:21:49.582Z,30.69
2016-06-06T18:22:49.632Z,30.57
2016-06-06T18:23:49.696Z,30.68
2016-06-06T18:24:49.747Z,30.63
2016-06-06T18:25:49.811Z,30.61
2016-06-06T18:26:49.876Z,30.35
2016-06-06T18:27:49.910Z,30.39
2016-06-06T18:28:49.960Z,30.57
2016-06-06T18:29:50.353Z,30.54
2016-06-06T18:30:50.544Z,30.63
2016-06-06T18:31:50.156Z,30.65
2016-06-06T18:32:50.173Z,30.66
2016-06-06T18:33:50.239Z,30.55
2016-06-06T18:34:50.304Z,30.54
2016-06-06T18:35:50.370Z,30.55
2016-06-06T18:36:50.419Z,30.46
2016-06-06T18:37:50.469Z,30.32
2016-06-06T18:38:50.519Z,30.24
2016-06-06T18:39:50.567Z,30.13
2016-06-06T18:40:50.633Z,30.08
2016-06-06T18:41:50.667Z,30.15
2016-06-06T18:42:50.732Z,30.02
2016-06-06T18:43:50.798Z,30.05
2016-06-06T18:44:51.613Z,30.05
2016-06-06T18:45:51.788Z,29.97
2016-06-06T18:46:50.946Z,29.94
2016-06-06T18:47:51.058Z,29.95
2016-06-06T18:48:51.077Z,29.76
2016-06-06T18:49:51.126Z,29.68
2016-06-06T18:50:51.019Z,29.6
2016-06-06T18:51:51.225Z,29.47
2016-06-06T18:52:51.291Z,29.36
2016-06-06T18:53:51.340Z,29.23
2016-06-06T18:54:51.389Z,29.12
2016-06-06T18:55:51.455Z,29.08
2016-06-06T18:56:51.488Z,29.05
2016-06-06T18:57:51.554Z,29.05
2016-06-06T18:58:51.604Z,29.04
2016-06-06T18:59:52.012Z,28.91
2016-06-06T19:00:52.545Z,28.94
2016-06-06T19:01:51.767Z,28.82
2016-06-06T19:02:51.833Z,28.81
2016-06-06T19:03:51.898Z,28.96
2016-06-06T19:04:51.931Z,28.88
2016-06-06T19:05:51.981Z,28.93
2016-06-06T19:06:52.047Z,28.84
2016-06-06T19:07:52.112Z,28.85
2016-06-06T19:08:58.239Z,28.82
2016-06-06T19:09:52.195Z,28.81
2016-06-06T19:10:52.261Z,28.75
2016-06-06T19:11:52.311Z,28.64
2016-06-06T19:12:52.360Z,28.7
2016-06-06T19:13:52.409Z,28.66
2016-06-06T19:14:52.474Z,28.62
2016-06-06T19:15:52.509Z,28.69
2016-06-06T19:16:52.917Z,28.67
2016-06-06T19:17:52.920Z,28.57
2016-06-06T19:18:52.672Z,28.63
2016-06-06T19:19:52.738Z,28.63
2016-06-06T19:20:52.788Z,28.67
2016-06-06T19:21:52.838Z,28.69
2016-06-06T19:22:52.902Z,28.69
2016-06-06T19:23:52.952Z,28.7
2016-06-06T19:24:53.001Z,28.76
2016-06-06T19:25:53.082Z,28.54
2016-06-06T19:26:53.101Z,28.64
2016-06-06T19:27:53.150Z,28.51
2016-06-06T19:28:53.231Z,28.51
2016-06-06T19:29:53.265Z,28.48
2016-06-06T19:30:53.315Z,28.51
2016-06-06T19:31:53.223Z,28.48
2016-06-06T19:32:53.429Z,28.41
2016-06-06T19:33:53.479Z,28.42
2016-06-06T19:34:54.372Z,28.49
2016-06-06T19:35:53.843Z,28.41
2016-06-06T19:36:53.643Z,28.25
2016-06-06T19:37:53.678Z,28.11
2016-06-06T19:38:53.742Z,28.11
2016-06-06T19:39:53.808Z,28.14
2016-06-06T19:40:53.857Z,28.2
2016-06-06T19:41:53.891Z,28.2
2016-06-06T19:42:53.956Z,28.23
2016-06-06T19:43:54.006Z,28.22
2016-06-06T19:44:54.055Z,28.25
2016-06-06T19:45:54.105Z,28.2
2016-06-06T19:46:54.155Z,28.19
2016-06-06T19:47:54.266Z,28.1
2016-06-06T19:48:54.128Z,28.08
2016-06-06T19:49:54.334Z,28.05
2016-06-06T19:50:54.383Z,28.11
2016-06-06T19:51:54.449Z,28.01
2016-06-06T19:52:54.499Z,27.95
2016-06-06T19:53:54.532Z,27.95
2016-06-06T19:54:54.582Z,27.85
2016-06-06T19:55:54.663Z,27.82
2016-06-06T19:56:54.713Z,27.89
2016-06-06T19:57:54.574Z,27.78
2016-06-06T19:58:54.796Z,27.83
2016-06-06T19:59:54.845Z,27.83
2016-06-06T20:00:54.910Z,27.78
2016-06-06T20:01:54.945Z,27.78
2016-06-06T20:02:54.853Z,27.87
2016-06-06T20:03:55.059Z,27.74
2016-06-06T20:04:55.876Z,27.78
2016-06-06T20:05:55.173Z,27.75
2016-06-06T20:06:55.224Z,27.85
2016-06-06T20:07:55.273Z,27.77
2016-06-06T20:08:55.307Z,27.71
2016-06-06T20:09:55.372Z,27.7
2016-06-06T20:10:55.437Z,27.63
2016-06-06T20:11:55.487Z,27.63
2016-06-06T20:12:55.521Z,27.51
2016-06-06T20:13:55.586Z,27.54
2016-06-06T20:14:55.636Z,27.42
2016-06-06T20:15:55.700Z,27.37
2016-06-06T20:16:55.735Z,27.27
2016-06-06T20:17:55.816Z,27.27
2016-06-06T20:18:55.850Z,27.26
2016-06-06T20:19:55.899Z,27.17
2016-06-06T20:20:55.981Z,27.25
2016-06-06T20:21:56.014Z,27.2
2016-06-06T20:22:56.048Z,27.2
2016-06-06T20:23:56.097Z,27.08
2016-06-06T20:24:56.163Z,27.07
2016-06-06T20:25:56.196Z,27.12
2016-06-06T20:26:56.262Z,27.15
2016-06-06T20:27:56.312Z,27.11
2016-06-06T20:28:56.361Z,27.12
2016-06-06T20:29:56.410Z,27.22
2016-06-06T20:30:56.491Z,27.2
2016-06-06T20:31:56.526Z,27.12
2016-06-06T20:32:56.591Z,27.2
2016-06-06T20:33:56.454Z,27.17
2016-06-06T20:34:57.206Z,27.05
2016-06-06T20:35:56.833Z,27.02
2016-06-06T20:36:56.789Z,27.07
2016-06-06T20:37:56.823Z,27.02
2016-06-06T20:38:56.887Z,26.84
2016-06-06T20:39:56.937Z,26.9
2016-06-06T20:40:56.987Z,26.96
2016-06-06T20:41:57.037Z,26.88
2016-06-06T20:42:57.086Z,26.9
2016-06-06T20:43:57.167Z,26.84
2016-06-06T20:44:57.216Z,26.9
2016-06-06T20:45:57.235Z,26.8
2016-06-06T20:46:57.316Z,26.84
2016-06-06T20:47:57.412Z,26.75
2016-06-06T20:48:57.399Z,26.77
2016-06-06T20:49:57.792Z,26.73
2016-06-06T20:50:57.513Z,26.85
2016-06-06T20:51:57.391Z,26.8
2016-06-06T20:52:57.613Z,26.78
2016-06-06T20:53:57.663Z,26.9
2016-06-06T20:54:57.712Z,27
2016-06-06T20:55:57.777Z,26.97
2016-06-06T20:56:57.811Z,26.88
2016-06-06T20:57:57.721Z,26.96
2016-06-06T20:58:57.926Z,27.05
2016-06-06T20:59:57.976Z,27.05
2016-06-06T21:00:58.026Z,27.14
2016-06-06T21:01:58.091Z,26.99
2016-06-06T21:02:58.125Z,27
2016-06-06T21:03:58.017Z,27
2016-06-06T21:04:58.239Z,26.93
2016-06-06T21:05:58.711Z,27.07
2016-06-06T21:06:58.338Z,27.07
2016-06-06T21:07:58.387Z,27.1
2016-06-06T21:08:58.437Z,27
2016-06-06T21:09:58.503Z,27.05
2016-06-06T21:10:58.553Z,27.1
2016-06-06T21:11:58.601Z,27.03
2016-06-06T21:12:58.667Z,27.03
2016-06-06T21:13:58.701Z,26.93
2016-06-06T21:14:58.751Z,26.84
2016-06-06T21:15:58.816Z,26.81
2016-06-06T21:16:58.865Z,26.89
2016-06-06T21:17:58.899Z,26.85
2016-06-06T21:18:58.950Z,26.89
2016-06-06T21:19:59.857Z,26.92
2016-06-06T21:20:59.844Z,26.84
2016-06-06T21:21:59.097Z,26.77
2016-06-06T21:22:59.147Z,26.83
2016-06-06T21:23:59.243Z,26.85
2016-06-06T21:24:59.277Z,26.88
2016-06-06T21:25:59.311Z,26.71
2016-06-06T21:26:59.377Z,26.77
2016-06-06T21:27:59.426Z,26.75
2016-06-06T21:28:59.476Z,26.73
2016-06-06T21:29:59.541Z,26.53
2016-06-06T21:30:59.590Z,26.51
2016-06-06T21:31:59.671Z,26.55
2016-06-06T21:32:59.704Z,26.48
2016-06-06T21:33:59.739Z,26.55
2016-06-06T21:35:00.101Z,26.59
2016-06-06T21:35:59.823Z,26.58
2016-06-06T21:36:59.903Z,26.65